sensor_id;sensor_type;location;lat;lon;timestamp;temperature;humidity
27848;DHT22;15212;48.830;8.730;2022-09-27T00:01:46;9.20;99.90
27848;DHT22;15212;48.830;8.730;2022-09-27T00:04:14;9.20;99.90
27848;DHT22;15212;48.830;8.730;2022-09-27T00:06:43;9.20;99.90
27848;DHT22;15212;48.830;8.730;2022-09-27T00:09:11;9.20;99.90
27848;DHT22;15212;48.830;8.730;2022-09-27T00:11:41;9.20;99.90
27848;DHT22;15212;48.830;8.730;2022-09-27T00:14:11;9.30;99.90
27848;DHT22;15212;48.830;8.730;2022-09-27T00:16:41;9.30;99.90
27848;DHT22;15212;48.830;8.730;2022-09-27T00:19:16;9.30;99.90
27848;DHT22;15212;48.830;8.730;2022-09-27T00:21:47;9.30;99.90
27848;DHT22;15212;48.830;8.730;2022-09-27T00:24:19;9.30;99.90
27848;DHT22;15212;48.830;8.730;2022-09-27T00:26:48;9.30;99.90
27848;DHT22;15212;48.830;8.730;2022-09-27T00:29:18;9.30;99.90
27848;DHT22;15212;48.830;8.730;2022-09-27T00:31:47;9.30;99.90
27848;DHT22;15212;48.830;8.730;2022-09-27T00:34:23;9.30;99.90
27848;DHT22;15212;48.830;8.730;2022-09-27T00:36:48;9.30;99.90
27848;DHT22;15212;48.830;8.730;2022-09-27T00:39:18;9.30;99.90
27848;DHT22;15212;48.830;8.730;2022-09-27T00:41:46;9.30;99.90
27848;DHT22;15212;48.830;8.730;2022-09-27T00:50:06;9.30;99.90
27848;DHT22;15212;48.830;8.730;2022-09-27T00:55:18;9.40;99.90
27848;DHT22;15212;48.830;8.730;2022-09-27T00:57:48;9.40;99.90
27848;DHT22;15212;48.830;8.730;2022-09-27T01:00:17;9.40;99.90
27848;DHT22;15212;48.830;8.730;2022-09-27T01:02:50;9.40;99.90
27848;DHT22;15212;48.830;8.730;2022-09-27T01:05:23;9.40;99.90
27848;DHT22;15212;48.830;8.730;2022-09-27T01:07:53;9.40;99.90
27848;DHT22;15212;48.830;8.730;2022-09-27T01:10:28;9.40;99.90
27848;DHT22;15212;48.830;8.730;2022-09-27T01:13:22;9.40;99.90
27848;DHT22;15212;48.830;8.730;2022-09-27T01:16:14;9.40;99.90
27848;DHT22;15212;48.830;8.730;2022-09-27T01:18:55;9.40;99.90
27848;DHT22;15212;48.830;8.730;2022-09-27T01:21:36;9.40;99.90
27848;DHT22;15212;48.830;8.730;2022-09-27T01:24:40;9.40;99.90
27848;DHT22;15212;48.830;8.730;2022-09-27T01:30:20;9.30;99.90
27848;DHT22;15212;48.830;8.730;2022-09-27T01:36:19;9.30;99.90
27848;DHT22;15212;48.830;8.730;2022-09-27T01:38:52;9.30;99.90
27848;DHT22;15212;48.830;8.730;2022-09-27T01:41:31;9.30;99.90
27848;DHT22;15212;48.830;8.730;2022-09-27T01:44:05;9.20;99.90
27848;DHT22;15212;48.830;8.730;2022-09-27T01:46:38;9.20;99.90
27848;DHT22;15212;48.830;8.730;2022-09-27T01:49:12;9.20;99.90
27848;DHT22;15212;48.830;8.730;2022-09-27T01:51:51;9.20;99.90
27848;DHT22;15212;48.830;8.730;2022-09-27T01:54:20;9.20;99.90
27848;DHT22;15212;48.830;8.730;2022-09-27T01:56:52;9.20;99.90
27848;DHT22;15212;48.830;8.730;2022-09-27T01:59:28;9.20;99.90
27848;DHT22;15212;48.830;8.730;2022-09-27T02:02:01;9.10;99.90
27848;DHT22;15212;48.830;8.730;2022-09-27T02:04:32;9.00;99.90
27848;DHT22;15212;48.830;8.730;2022-09-27T02:07:13;8.90;99.90
27848;DHT22;15212;48.830;8.730;2022-09-27T02:09:58;8.90;99.90
27848;DHT22;15212;48.830;8.730;2022-09-27T02:12:26;8.80;99.90
27848;DHT22;15212;48.830;8.730;2022-09-27T02:15:03;8.70;99.90
27848;DHT22;15212;48.830;8.730;2022-09-27T02:20:39;8.50;99.90
27848;DHT22;15212;48.830;8.730;2022-09-27T02:26:06;8.50;99.90
27848;DHT22;15212;48.830;8.730;2022-09-27T02:28:43;8.50;99.90
27848;DHT22;15212;48.830;8.730;2022-09-27T02:31:19;8.50;99.90
27848;DHT22;15212;48.830;8.730;2022-09-27T02:33:54;8.40;99.90
27848;DHT22;15212;48.830;8.730;2022-09-27T02:36:27;8.40;99.90
27848;DHT22;15212;48.830;8.730;2022-09-27T02:38:56;8.30;99.90
27848;DHT22;15212;48.830;8.730;2022-09-27T02:41:25;8.30;99.90
27848;DHT22;15212;48.830;8.730;2022-09-27T02:43:56;8.20;99.90
27848;DHT22;15212;48.830;8.730;2022-09-27T02:46:35;8.30;99.90
27848;DHT22;15212;48.830;8.730;2022-09-27T02:54:51;8.30;99.90
27848;DHT22;15212;48.830;8.730;2022-09-27T02:57:35;8.30;99.90
27848;DHT22;15212;48.830;8.730;2022-09-27T03:00:20;8.30;99.90
27848;DHT22;15212;48.830;8.730;2022-09-27T03:03:12;8.40;99.90
27848;DHT22;15212;48.830;8.730;2022-09-27T03:05:57;8.40;99.90
27848;DHT22;15212;48.830;8.730;2022-09-27T03:08:27;8.40;99.90
27848;DHT22;15212;48.830;8.730;2022-09-27T03:10:56;8.40;99.90
27848;DHT22;15212;48.830;8.730;2022-09-27T03:13:24;8.40;99.90
27848;DHT22;15212;48.830;8.730;2022-09-27T03:15:53;8.40;99.90
27848;DHT22;15212;48.830;8.730;2022-09-27T03:18:21;8.50;99.90
27848;DHT22;15212;48.830;8.730;2022-09-27T03:20:52;8.50;99.90
27848;DHT22;15212;48.830;8.730;2022-09-27T03:23:20;8.40;99.90
27848;DHT22;15212;48.830;8.730;2022-09-27T03:25:49;8.50;99.90
27848;DHT22;15212;48.830;8.730;2022-09-27T03:28:18;8.50;99.90
27848;DHT22;15212;48.830;8.730;2022-09-27T03:30:46;8.50;99.90
27848;DHT22;15212;48.830;8.730;2022-09-27T03:33:14;8.50;99.90
27848;DHT22;15212;48.830;8.730;2022-09-27T03:35:43;8.40;99.90
27848;DHT22;15212;48.830;8.730;2022-09-27T03:38:11;8.40;99.90
27848;DHT22;15212;48.830;8.730;2022-09-27T03:40:40;8.40;99.90
27848;DHT22;15212;48.830;8.730;2022-09-27T03:43:08;8.40;99.90
27848;DHT22;15212;48.830;8.730;2022-09-27T03:45:36;8.40;99.90
27848;DHT22;15212;48.830;8.730;2022-09-27T03:48:05;8.40;99.90
27848;DHT22;15212;48.830;8.730;2022-09-27T03:50:33;8.40;99.90
27848;DHT22;15212;48.830;8.730;2022-09-27T03:53:02;8.40;99.90
27848;DHT22;15212;48.830;8.730;2022-09-27T03:55:30;8.40;99.90
27848;DHT22;15212;48.830;8.730;2022-09-27T03:57:58;8.40;99.90
27848;DHT22;15212;48.830;8.730;2022-09-27T04:00:27;8.40;99.90
27848;DHT22;15212;48.830;8.730;2022-09-27T04:02:58;8.40;99.90
27848;DHT22;15212;48.830;8.730;2022-09-27T04:05:27;8.40;99.90
27848;DHT22;15212;48.830;8.730;2022-09-27T04:07:56;8.40;99.90
27848;DHT22;15212;48.830;8.730;2022-09-27T04:10:25;8.40;99.90
27848;DHT22;15212;48.830;8.730;2022-09-27T04:12:53;8.40;99.90
27848;DHT22;15212;48.830;8.730;2022-09-27T04:15:21;8.40;99.90
27848;DHT22;15212;48.830;8.730;2022-09-27T04:17:50;8.40;99.90
27848;DHT22;15212;48.830;8.730;2022-09-27T04:20:18;8.40;99.90
27848;DHT22;15212;48.830;8.730;2022-09-27T04:22:47;8.40;99.90
27848;DHT22;15212;48.830;8.730;2022-09-27T04:25:16;8.40;99.90
27848;DHT22;15212;48.830;8.730;2022-09-27T04:27:45;8.40;99.90
27848;DHT22;15212;48.830;8.730;2022-09-27T04:30:14;8.40;99.90
27848;DHT22;15212;48.830;8.730;2022-09-27T04:32:44;8.40;99.90
27848;DHT22;15212;48.830;8.730;2022-09-27T04:35:13;8.30;99.90
27848;DHT22;15212;48.830;8.730;2022-09-27T04:37:59;8.30;99.90
27848;DHT22;15212;48.830;8.730;2022-09-27T04:40:27;8.30;99.90
27848;DHT22;15212;48.830;8.730;2022-09-27T04:42:56;8.20;99.90
27848;DHT22;15212;48.830;8.730;2022-09-27T04:45:24;8.20;99.90
27848;DHT22;15212;48.830;8.730;2022-09-27T04:47:52;8.10;99.90
27848;DHT22;15212;48.830;8.730;2022-09-27T04:50:21;8.10;99.90
27848;DHT22;15212;48.830;8.730;2022-09-27T04:52:51;8.10;99.90
27848;DHT22;15212;48.830;8.730;2022-09-27T04:55:21;8.10;99.90
27848;DHT22;15212;48.830;8.730;2022-09-27T04:57:49;8.10;99.90
27848;DHT22;15212;48.830;8.730;2022-09-27T05:00:18;8.10;99.90
27848;DHT22;15212;48.830;8.730;2022-09-27T05:02:47;8.10;99.90
27848;DHT22;15212;48.830;8.730;2022-09-27T05:05:15;8.10;99.90
27848;DHT22;15212;48.830;8.730;2022-09-27T05:07:44;8.10;99.90
27848;DHT22;15212;48.830;8.730;2022-09-27T05:10:12;8.10;99.90
27848;DHT22;15212;48.830;8.730;2022-09-27T05:12:40;8.00;99.90
27848;DHT22;15212;48.830;8.730;2022-09-27T05:15:09;8.00;99.90
27848;DHT22;15212;48.830;8.730;2022-09-27T05:17:37;7.90;99.90
27848;DHT22;15212;48.830;8.730;2022-09-27T05:20:06;8.00;99.90
27848;DHT22;15212;48.830;8.730;2022-09-27T05:22:36;7.90;99.90
27848;DHT22;15212;48.830;8.730;2022-09-27T05:25:06;8.00;99.90
27848;DHT22;15212;48.830;8.730;2022-09-27T05:27:34;8.00;99.90
27848;DHT22;15212;48.830;8.730;2022-09-27T05:30:04;8.00;99.90
27848;DHT22;15212;48.830;8.730;2022-09-27T05:32:34;7.90;99.90
27848;DHT22;15212;48.830;8.730;2022-09-27T05:35:02;8.00;99.90
27848;DHT22;15212;48.830;8.730;2022-09-27T05:37:31;7.90;99.90
27848;DHT22;15212;48.830;8.730;2022-09-27T05:40:00;7.90;99.90
27848;DHT22;15212;48.830;8.730;2022-09-27T05:42:28;7.90;99.90
27848;DHT22;15212;48.830;8.730;2022-09-27T05:44:57;7.90;99.90
27848;DHT22;15212;48.830;8.730;2022-09-27T05:47:26;7.90;99.90
27848;DHT22;15212;48.830;8.730;2022-09-27T05:49:54;7.90;99.90
27848;DHT22;15212;48.830;8.730;2022-09-27T05:52:22;7.80;99.90
27848;DHT22;15212;48.830;8.730;2022-09-27T05:54:52;7.80;99.90
27848;DHT22;15212;48.830;8.730;2022-09-27T05:57:20;7.80;99.90
27848;DHT22;15212;48.830;8.730;2022-09-27T05:59:48;7.80;99.90
27848;DHT22;15212;48.830;8.730;2022-09-27T06:02:17;7.80;99.90
27848;DHT22;15212;48.830;8.730;2022-09-27T06:04:45;7.80;99.90
27848;DHT22;15212;48.830;8.730;2022-09-27T06:07:13;7.80;99.90
27848;DHT22;15212;48.830;8.730;2022-09-27T06:09:42;7.90;99.90
27848;DHT22;15212;48.830;8.730;2022-09-27T06:12:11;7.90;99.90
27848;DHT22;15212;48.830;8.730;2022-09-27T06:14:39;7.90;99.90
27848;DHT22;15212;48.830;8.730;2022-09-27T06:17:08;7.80;99.90
27848;DHT22;15212;48.830;8.730;2022-09-27T06:19:36;7.70;99.90
27848;DHT22;15212;48.830;8.730;2022-09-27T06:22:05;7.70;99.90
27848;DHT22;15212;48.830;8.730;2022-09-27T06:24:33;7.60;99.90
27848;DHT22;15212;48.830;8.730;2022-09-27T06:27:01;7.60;99.90
27848;DHT22;15212;48.830;8.730;2022-09-27T06:29:30;7.70;99.90
27848;DHT22;15212;48.830;8.730;2022-09-27T06:32:00;7.70;99.90
27848;DHT22;15212;48.830;8.730;2022-09-27T06:34:28;7.70;99.90
27848;DHT22;15212;48.830;8.730;2022-09-27T06:36:58;7.80;99.90
27848;DHT22;15212;48.830;8.730;2022-09-27T06:39:26;7.70;99.90
27848;DHT22;15212;48.830;8.730;2022-09-27T06:41:55;7.70;99.90
27848;DHT22;15212;48.830;8.730;2022-09-27T06:44:24;7.80;99.90
27848;DHT22;15212;48.830;8.730;2022-09-27T06:46:52;7.80;99.90
27848;DHT22;15212;48.830;8.730;2022-09-27T06:49:21;7.80;99.90
27848;DHT22;15212;48.830;8.730;2022-09-27T06:51:52;7.80;99.90
27848;DHT22;15212;48.830;8.730;2022-09-27T06:54:20;7.70;99.90
27848;DHT22;15212;48.830;8.730;2022-09-27T06:56:49;7.80;99.90
27848;DHT22;15212;48.830;8.730;2022-09-27T06:59:17;7.70;99.90
27848;DHT22;15212;48.830;8.730;2022-09-27T07:02:03;7.70;99.90
27848;DHT22;15212;48.830;8.730;2022-09-27T07:04:32;7.70;99.90
27848;DHT22;15212;48.830;8.730;2022-09-27T07:07:00;7.70;99.90
27848;DHT22;15212;48.830;8.730;2022-09-27T07:09:28;7.70;99.90
27848;DHT22;15212;48.830;8.730;2022-09-27T07:11:57;7.70;99.90
27848;DHT22;15212;48.830;8.730;2022-09-27T07:14:25;7.80;99.90
27848;DHT22;15212;48.830;8.730;2022-09-27T07:16:54;7.90;99.90
27848;DHT22;15212;48.830;8.730;2022-09-27T07:19:22;7.90;99.90
27848;DHT22;15212;48.830;8.730;2022-09-27T07:21:51;8.00;99.90
27848;DHT22;15212;48.830;8.730;2022-09-27T07:24:19;8.00;99.90
27848;DHT22;15212;48.830;8.730;2022-09-27T07:26:47;8.00;99.90
27848;DHT22;15212;48.830;8.730;2022-09-27T07:29:16;8.20;99.90
27848;DHT22;15212;48.830;8.730;2022-09-27T07:31:44;8.40;99.90
27848;DHT22;15212;48.830;8.730;2022-09-27T07:34:13;8.40;99.90
27848;DHT22;15212;48.830;8.730;2022-09-27T07:36:43;8.50;99.90
27848;DHT22;15212;48.830;8.730;2022-09-27T07:39:11;8.40;99.90
27848;DHT22;15212;48.830;8.730;2022-09-27T07:41:44;8.40;99.90
27848;DHT22;15212;48.830;8.730;2022-09-27T07:44:12;8.30;99.90
27848;DHT22;15212;48.830;8.730;2022-09-27T07:46:41;8.20;99.90
27848;DHT22;15212;48.830;8.730;2022-09-27T07:49:10;8.20;99.90
27848;DHT22;15212;48.830;8.730;2022-09-27T07:51:38;8.40;99.90
27848;DHT22;15212;48.830;8.730;2022-09-27T07:54:06;8.50;99.90
27848;DHT22;15212;48.830;8.730;2022-09-27T07:56:35;8.50;99.90
27848;DHT22;15212;48.830;8.730;2022-09-27T07:59:03;8.50;99.90
27848;DHT22;15212;48.830;8.730;2022-09-27T08:01:32;8.70;99.90
27848;DHT22;15212;48.830;8.730;2022-09-27T08:04:00;8.90;99.90
27848;DHT22;15212;48.830;8.730;2022-09-27T08:06:29;8.90;99.90
27848;DHT22;15212;48.830;8.730;2022-09-27T08:08:57;9.00;99.90
27848;DHT22;15212;48.830;8.730;2022-09-27T08:11:27;9.00;99.90
27848;DHT22;15212;48.830;8.730;2022-09-27T08:13:56;8.90;99.90
27848;DHT22;15212;48.830;8.730;2022-09-27T08:16:25;8.90;99.90
27848;DHT22;15212;48.830;8.730;2022-09-27T08:18:53;8.90;99.90
27848;DHT22;15212;48.830;8.730;2022-09-27T08:21:21;8.90;99.90
27848;DHT22;15212;48.830;8.730;2022-09-27T08:23:50;8.80;99.90
27848;DHT22;15212;48.830;8.730;2022-09-27T08:26:19;8.70;99.90
27848;DHT22;15212;48.830;8.730;2022-09-27T08:28:48;8.70;99.90
27848;DHT22;15212;48.830;8.730;2022-09-27T08:31:16;8.60;99.90
27848;DHT22;15212;48.830;8.730;2022-09-27T08:33:49;8.60;99.90
27848;DHT22;15212;48.830;8.730;2022-09-27T08:36:19;8.70;99.90
27848;DHT22;15212;48.830;8.730;2022-09-27T08:38:49;8.70;99.90
27848;DHT22;15212;48.830;8.730;2022-09-27T08:41:44;8.60;99.90
27848;DHT22;15212;48.830;8.730;2022-09-27T08:44:18;8.50;99.90
27848;DHT22;15212;48.830;8.730;2022-09-27T08:46:58;8.50;99.90
27848;DHT22;15212;48.830;8.730;2022-09-27T08:49:35;8.40;99.90
27848;DHT22;15212;48.830;8.730;2022-09-27T08:52:18;8.30;99.90
27848;DHT22;15212;48.830;8.730;2022-09-27T08:54:48;8.30;99.90
27848;DHT22;15212;48.830;8.730;2022-09-27T08:57:17;8.30;99.90
27848;DHT22;15212;48.830;8.730;2022-09-27T08:59:53;8.40;99.90
27848;DHT22;15212;48.830;8.730;2022-09-27T09:02:23;8.50;99.90
27848;DHT22;15212;48.830;8.730;2022-09-27T09:04:59;8.60;99.90
27848;DHT22;15212;48.830;8.730;2022-09-27T09:07:39;8.60;99.90
27848;DHT22;15212;48.830;8.730;2022-09-27T09:10:44;8.70;99.90
27848;DHT22;15212;48.830;8.730;2022-09-27T09:19:48;9.40;99.90
27848;DHT22;15212;48.830;8.730;2022-09-27T09:22:50;9.50;99.90
27848;DHT22;15212;48.830;8.730;2022-09-27T09:25:49;9.50;99.90
27848;DHT22;15212;48.830;8.730;2022-09-27T09:28:27;9.90;99.90
27848;DHT22;15212;48.830;8.730;2022-09-27T09:31:14;10.20;99.90
27848;DHT22;15212;48.830;8.730;2022-09-27T09:33:55;10.00;99.90
27848;DHT22;15212;48.830;8.730;2022-09-27T09:39:32;10.10;99.90
27848;DHT22;15212;48.830;8.730;2022-09-27T09:42:04;10.20;99.90
27848;DHT22;15212;48.830;8.730;2022-09-27T09:44:46;10.30;99.90
27848;DHT22;15212;48.830;8.730;2022-09-27T09:47:26;10.40;99.90
27848;DHT22;15212;48.830;8.730;2022-09-27T09:50:19;10.40;99.90
27848;DHT22;15212;48.830;8.730;2022-09-27T09:52:54;10.40;99.90
27848;DHT22;15212;48.830;8.730;2022-09-27T09:55:27;10.20;99.90
27848;DHT22;15212;48.830;8.730;2022-09-27T10:00:41;10.30;99.90
27848;DHT22;15212;48.830;8.730;2022-09-27T10:03:10;10.40;99.90
27848;DHT22;15212;48.830;8.730;2022-09-27T10:05:41;10.40;99.90
27848;DHT22;15212;48.830;8.730;2022-09-27T10:08:16;10.20;99.90
27848;DHT22;15212;48.830;8.730;2022-09-27T10:10:48;10.10;99.90
27848;DHT22;15212;48.830;8.730;2022-09-27T10:13:20;10.00;99.90
27848;DHT22;15212;48.830;8.730;2022-09-27T10:16:09;10.00;99.90
27848;DHT22;15212;48.830;8.730;2022-09-27T10:18:40;10.20;99.90
27848;DHT22;15212;48.830;8.730;2022-09-27T10:21:20;10.40;99.90
27848;DHT22;15212;48.830;8.730;2022-09-27T10:26:38;10.50;99.90
27848;DHT22;15212;48.830;8.730;2022-09-27T10:29:29;10.40;99.90
27848;DHT22;15212;48.830;8.730;2022-09-27T10:31:58;10.40;99.90
27848;DHT22;15212;48.830;8.730;2022-09-27T10:34:37;10.30;99.90
27848;DHT22;15212;48.830;8.730;2022-09-27T10:39:45;10.10;99.90
27848;DHT22;15212;48.830;8.730;2022-09-27T10:42:29;10.10;99.90
27848;DHT22;15212;48.830;8.730;2022-09-27T10:44:51;10.00;99.90
27848;DHT22;15212;48.830;8.730;2022-09-27T10:47:22;10.10;99.90
27848;DHT22;15212;48.830;8.730;2022-09-27T10:50:01;10.10;99.90
27848;DHT22;15212;48.830;8.730;2022-09-27T10:52:25;10.20;99.90
27848;DHT22;15212;48.830;8.730;2022-09-27T10:54:56;10.30;99.90
27848;DHT22;15212;48.830;8.730;2022-09-27T10:57:28;10.40;99.90
27848;DHT22;15212;48.830;8.730;2022-09-27T10:59:59;10.50;99.90
27848;DHT22;15212;48.830;8.730;2022-09-27T11:02:32;10.60;99.90
27848;DHT22;15212;48.830;8.730;2022-09-27T11:05:05;10.60;99.90
27848;DHT22;15212;48.830;8.730;2022-09-27T11:07:37;10.60;99.90
27848;DHT22;15212;48.830;8.730;2022-09-27T11:10:29;10.50;99.90
27848;DHT22;15212;48.830;8.730;2022-09-27T11:13:12;10.40;99.90
27848;DHT22;15212;48.830;8.730;2022-09-27T11:15:48;10.30;99.90
27848;DHT22;15212;48.830;8.730;2022-09-27T11:18:41;10.20;99.90
27848;DHT22;15212;48.830;8.730;2022-09-27T11:24:30;10.00;99.90
27848;DHT22;15212;48.830;8.730;2022-09-27T11:30:12;9.40;99.90
27848;DHT22;15212;48.830;8.730;2022-09-27T11:32:47;8.70;99.90
27848;DHT22;15212;48.830;8.730;2022-09-27T11:38:23;8.10;99.90
27848;DHT22;15212;48.830;8.730;2022-09-27T11:44:06;7.90;99.90
27848;DHT22;15212;48.830;8.730;2022-09-27T11:58:26;8.00;99.90
27848;DHT22;15212;48.830;8.730;2022-09-27T12:01:35;7.90;99.90
27848;DHT22;15212;48.830;8.730;2022-09-27T12:10:15;8.10;99.90
27848;DHT22;15212;48.830;8.730;2022-09-27T12:12:49;8.10;99.90
27848;DHT22;15212;48.830;8.730;2022-09-27T12:15:23;8.00;99.90
27848;DHT22;15212;48.830;8.730;2022-09-27T12:18:21;8.00;99.90
27848;DHT22;15212;48.830;8.730;2022-09-27T12:20:43;8.00;99.90
27848;DHT22;15212;48.830;8.730;2022-09-27T12:23:37;7.90;99.90
27848;DHT22;15212;48.830;8.730;2022-09-27T12:26:22;7.90;99.90
27848;DHT22;15212;48.830;8.730;2022-09-27T12:29:14;7.90;99.90
27848;DHT22;15212;48.830;8.730;2022-09-27T12:32:17;8.00;99.90
27848;DHT22;15212;48.830;8.730;2022-09-27T12:37:39;8.40;99.90
27848;DHT22;15212;48.830;8.730;2022-09-27T12:40:26;8.50;99.90
27848;DHT22;15212;48.830;8.730;2022-09-27T12:43:05;8.50;99.90
27848;DHT22;15212;48.830;8.730;2022-09-27T12:51:54;8.30;99.90
27848;DHT22;15212;48.830;8.730;2022-09-27T13:03:02;8.50;99.90
27848;DHT22;15212;48.830;8.730;2022-09-27T13:05:57;8.50;99.90
27848;DHT22;15212;48.830;8.730;2022-09-27T13:09:05;8.60;99.90
27848;DHT22;15212;48.830;8.730;2022-09-27T13:11:46;8.70;99.90
27848;DHT22;15212;48.830;8.730;2022-09-27T13:14:22;8.80;99.90
27848;DHT22;15212;48.830;8.730;2022-09-27T13:16:52;8.80;99.90
27848;DHT22;15212;48.830;8.730;2022-09-27T13:19:43;8.80;99.90
27848;DHT22;15212;48.830;8.730;2022-09-27T13:22:37;8.70;99.90
27848;DHT22;15212;48.830;8.730;2022-09-27T13:31:01;8.50;99.90
27848;DHT22;15212;48.830;8.730;2022-09-27T13:33:50;8.50;99.90
27848;DHT22;15212;48.830;8.730;2022-09-27T13:50:16;8.40;99.90
27848;DHT22;15212;48.830;8.730;2022-09-27T13:53:05;8.30;99.90
27848;DHT22;15212;48.830;8.730;2022-09-27T13:55:45;8.40;99.90
27848;DHT22;15212;48.830;8.730;2022-09-27T13:58:29;8.40;99.90
27848;DHT22;15212;48.830;8.730;2022-09-27T14:01:19;8.40;99.90
27848;DHT22;15212;48.830;8.730;2022-09-27T14:04:33;8.60;99.90
27848;DHT22;15212;48.830;8.730;2022-09-27T14:06:56;8.70;99.90
27848;DHT22;15212;48.830;8.730;2022-09-27T14:09:31;8.80;99.90
27848;DHT22;15212;48.830;8.730;2022-09-27T14:12:04;8.90;99.90
27848;DHT22;15212;48.830;8.730;2022-09-27T14:14:40;8.90;99.90
27848;DHT22;15212;48.830;8.730;2022-09-27T14:17:11;8.90;99.90
27848;DHT22;15212;48.830;8.730;2022-09-27T14:19:41;8.80;99.90
27848;DHT22;15212;48.830;8.730;2022-09-27T14:22:15;8.90;99.90
27848;DHT22;15212;48.830;8.730;2022-09-27T14:24:48;9.10;99.90
27848;DHT22;15212;48.830;8.730;2022-09-27T14:27:22;9.30;99.90
27848;DHT22;15212;48.830;8.730;2022-09-27T14:29:59;9.30;99.90
27848;DHT22;15212;48.830;8.730;2022-09-27T14:32:46;9.20;99.90
27848;DHT22;15212;48.830;8.730;2022-09-27T14:35:21;9.20;99.90
27848;DHT22;15212;48.830;8.730;2022-09-27T14:38:11;9.30;99.90
27848;DHT22;15212;48.830;8.730;2022-09-27T14:40:54;9.40;99.90
27848;DHT22;15212;48.830;8.730;2022-09-27T14:43:21;9.50;99.90
27848;DHT22;15212;48.830;8.730;2022-09-27T14:45:56;9.40;99.90
27848;DHT22;15212;48.830;8.730;2022-09-27T14:48:31;9.40;99.90
27848;DHT22;15212;48.830;8.730;2022-09-27T14:53:49;9.60;99.90
27848;DHT22;15212;48.830;8.730;2022-09-27T14:56:26;9.70;99.90
27848;DHT22;15212;48.830;8.730;2022-09-27T14:58:58;9.90;99.90
27848;DHT22;15212;48.830;8.730;2022-09-27T15:01:53;9.80;99.90
27848;DHT22;15212;48.830;8.730;2022-09-27T15:04:18;9.80;99.90
27848;DHT22;15212;48.830;8.730;2022-09-27T15:06:47;9.70;99.90
27848;DHT22;15212;48.830;8.730;2022-09-27T15:09:17;9.70;99.90
27848;DHT22;15212;48.830;8.730;2022-09-27T15:11:50;9.80;99.90
27848;DHT22;15212;48.830;8.730;2022-09-27T15:14:20;9.90;99.90
27848;DHT22;15212;48.830;8.730;2022-09-27T15:16:50;9.80;99.90
27848;DHT22;15212;48.830;8.730;2022-09-27T15:19:24;9.80;99.90
27848;DHT22;15212;48.830;8.730;2022-09-27T15:21:55;9.60;99.90
27848;DHT22;15212;48.830;8.730;2022-09-27T15:24:49;9.50;99.90
27848;DHT22;15212;48.830;8.730;2022-09-27T15:27:17;9.20;99.90
27848;DHT22;15212;48.830;8.730;2022-09-27T15:29:53;9.10;99.90
27848;DHT22;15212;48.830;8.730;2022-09-27T15:32:25;9.00;99.90
27848;DHT22;15212;48.830;8.730;2022-09-27T15:34:55;9.00;99.90
27848;DHT22;15212;48.830;8.730;2022-09-27T15:37:35;8.90;99.90
27848;DHT22;15212;48.830;8.730;2022-09-27T15:43:27;8.90;99.90
27848;DHT22;15212;48.830;8.730;2022-09-27T15:46:31;8.80;99.90
27848;DHT22;15212;48.830;8.730;2022-09-27T15:49:20;8.80;99.90
27848;DHT22;15212;48.830;8.730;2022-09-27T15:52:01;8.90;99.90
27848;DHT22;15212;48.830;8.730;2022-09-27T15:54:34;8.90;99.90
27848;DHT22;15212;48.830;8.730;2022-09-27T15:57:04;9.00;99.90
27848;DHT22;15212;48.830;8.730;2022-09-27T15:59:34;9.00;99.90
27848;DHT22;15212;48.830;8.730;2022-09-27T16:02:09;9.00;99.90
27848;DHT22;15212;48.830;8.730;2022-09-27T16:04:37;8.90;99.90
27848;DHT22;15212;48.830;8.730;2022-09-27T16:07:06;8.90;99.90
27848;DHT22;15212;48.830;8.730;2022-09-27T16:09:35;8.80;99.90
27848;DHT22;15212;48.830;8.730;2022-09-27T16:12:04;8.70;99.90
27848;DHT22;15212;48.830;8.730;2022-09-27T16:14:32;8.60;99.90
27848;DHT22;15212;48.830;8.730;2022-09-27T16:17:01;8.50;99.90
27848;DHT22;15212;48.830;8.730;2022-09-27T16:19:29;8.50;99.90
27848;DHT22;15212;48.830;8.730;2022-09-27T16:21:57;8.50;99.90
27848;DHT22;15212;48.830;8.730;2022-09-27T16:24:28;8.40;99.90
27848;DHT22;15212;48.830;8.730;2022-09-27T16:26:57;8.40;99.90
27848;DHT22;15212;48.830;8.730;2022-09-27T16:29:26;8.40;99.90
27848;DHT22;15212;48.830;8.730;2022-09-27T16:31:54;8.40;99.90
27848;DHT22;15212;48.830;8.730;2022-09-27T16:34:22;8.40;99.90
27848;DHT22;15212;48.830;8.730;2022-09-27T16:36:51;8.40;99.90
27848;DHT22;15212;48.830;8.730;2022-09-27T16:39:19;8.30;99.90
27848;DHT22;15212;48.830;8.730;2022-09-27T16:41:48;8.30;99.90
27848;DHT22;15212;48.830;8.730;2022-09-27T16:44:18;8.30;99.90
27848;DHT22;15212;48.830;8.730;2022-09-27T16:46:46;8.20;99.90
27848;DHT22;15212;48.830;8.730;2022-09-27T16:49:15;8.10;99.90
27848;DHT22;15212;48.830;8.730;2022-09-27T16:52:00;8.10;99.90
27848;DHT22;15212;48.830;8.730;2022-09-27T16:54:29;8.00;99.90
27848;DHT22;15212;48.830;8.730;2022-09-27T16:56:58;8.00;99.90
27848;DHT22;15212;48.830;8.730;2022-09-27T16:59:26;8.00;99.90
27848;DHT22;15212;48.830;8.730;2022-09-27T17:01:55;8.00;99.90
27848;DHT22;15212;48.830;8.730;2022-09-27T17:04:24;8.00;99.90
27848;DHT22;15212;48.830;8.730;2022-09-27T17:06:56;8.00;99.90
27848;DHT22;15212;48.830;8.730;2022-09-27T17:09:24;7.90;99.90
27848;DHT22;15212;48.830;8.730;2022-09-27T17:11:53;8.00;99.90
27848;DHT22;15212;48.830;8.730;2022-09-27T17:14:21;7.90;99.90
27848;DHT22;15212;48.830;8.730;2022-09-27T17:16:50;7.90;99.90
27848;DHT22;15212;48.830;8.730;2022-09-27T17:19:19;7.90;99.90
27848;DHT22;15212;48.830;8.730;2022-09-27T17:21:49;7.90;99.90
27848;DHT22;15212;48.830;8.730;2022-09-27T17:24:17;7.80;99.90
27848;DHT22;15212;48.830;8.730;2022-09-27T17:26:45;7.80;99.90
27848;DHT22;15212;48.830;8.730;2022-09-27T17:29:14;7.80;99.90
27848;DHT22;15212;48.830;8.730;2022-09-27T17:31:43;7.80;99.90
27848;DHT22;15212;48.830;8.730;2022-09-27T17:34:12;7.80;99.90
27848;DHT22;15212;48.830;8.730;2022-09-27T17:36:42;7.80;99.90
27848;DHT22;15212;48.830;8.730;2022-09-27T17:39:15;7.80;99.90
27848;DHT22;15212;48.830;8.730;2022-09-27T17:41:48;7.80;99.90
27848;DHT22;15212;48.830;8.730;2022-09-27T17:44:17;7.70;99.90
27848;DHT22;15212;48.830;8.730;2022-09-27T17:46:46;7.70;99.90
27848;DHT22;15212;48.830;8.730;2022-09-27T17:49:16;7.70;99.90
27848;DHT22;15212;48.830;8.730;2022-09-27T17:52:02;7.70;99.90
27848;DHT22;15212;48.830;8.730;2022-09-27T17:54:30;7.70;99.90
27848;DHT22;15212;48.830;8.730;2022-09-27T17:56:58;7.60;99.90
27848;DHT22;15212;48.830;8.730;2022-09-27T17:59:27;7.60;99.90
27848;DHT22;15212;48.830;8.730;2022-09-27T18:01:55;7.50;99.90
27848;DHT22;15212;48.830;8.730;2022-09-27T18:04:24;7.50;99.90
27848;DHT22;15212;48.830;8.730;2022-09-27T18:06:52;7.50;99.90
27848;DHT22;15212;48.830;8.730;2022-09-27T18:09:21;7.40;99.90
27848;DHT22;15212;48.830;8.730;2022-09-27T18:11:49;7.40;99.90
27848;DHT22;15212;48.830;8.730;2022-09-27T18:14:18;7.40;99.90
27848;DHT22;15212;48.830;8.730;2022-09-27T18:16:47;7.40;99.90
27848;DHT22;15212;48.830;8.730;2022-09-27T18:19:16;7.40;99.90
27848;DHT22;15212;48.830;8.730;2022-09-27T18:21:44;7.40;99.90